Sunday, December 21, 2014
01:53 UTC
  |  Log In   |  Register Free
Airport Search:

Gainesville Municipal Airport
(KGLE)

FAA data valid effective November 13, 2014 - January 08, 2015 (unless otherwise noted).

 
 
 
 
 
 
 
 
 
 
 
 
 
 

Current Aviation Weather for Gainesville Municipal Airport (KGLE)

The most recent METAR observation for KGLE was updated at: 2114
METAR Summary (Translated METAR)
KGLE
182055Z AUTO 10003KT 10SM SCT007 OVC023 09/07 A3012 RMK AO2 T00860065
KGYI
182055Z AUTO 00000KT 5SM BR OVC005 07/07 A3012 RMK AO2 T00700068
(26.4 nm NE from KGLE)
KDTO
182053Z 07005KT 10SM OVC018 10/06 A3010 RMK AO2 SLP191 T01000061 56022
(27 nm SW from KGLE)
TAF
No TAF information found within 50 nm of KGLE
  Airport Weather Conditions for KGLE

 Current Weather at GLE
45° F
Overcast
North winds at 0.0 mph
GLE NOAA Radar

Pressure: 30.19 in
Humidity: 84%
Wind: Calm
Dew Point: 40.1°F
Visibility: 10.00 mi


Airport Weather Forecast for KGLE

Translated METAR and TAF for KGLE
Translated METAR for KGLE (0154 UTC 21 December 2014)
found at http://aviationweather.gov/adds/metars/
 
METAR text: KGLE 210135Z AUTO 12005KT 10SM BKN015 OVC020 07/05 A3020 RMK AO2 T00680048
Conditions at: KGLE (GAINESVILLE , TX, US) observed 0135 UTC 21 December 2014
Temperature: 6.8°C (44°F)
Dewpoint: 4.8°C (41°F) [RH = 87%]
Pressure (altimeter): 30.20 inches Hg (1022.8 mb)
Winds: from the ESE (120 degrees) at 6 MPH (5 knots; 2.6 m/s)
Visibility: 10 or more miles (16+ km)
Ceiling: 1500 feet AGL
Clouds: broken clouds at 1500 feet AGL
overcast cloud deck at 2000 feet AGL
Weather: automated observation with no human augmentation;
there may or may not be significant weather present at this time
Translated TAF for KGLE

There is no translated TAF available for this airport

Find All Airport Services Find A Hotel Find A Rental Car Find A Golf Course Find A Restaurant $100 Hamburger



FBO's on the Field
FBO Company Facility Photos Services Transportation Aviation Fuel Prices: Prices include tax
Catering Weather Repair Courtesy Rental Type 100LL JetA JetA+ MOGAS 8087
 
City of Gainesville Municipal Airport

This FBO has not yet been rated
FS:Phillips 66
Last Updated: Dec-13
Login to update fuel prices
SS:
Contact City of Gainesville Municipal AirportMore FBO Information
 
Add another FBO Facility Photos Catering Weather Repair Courtesy Rental Type 100LL JetA JetA+ MOGAS 8087
Services Transportation Aviation Fuel Prices: Prices include tax


model-print
model-print
model-print
model-print